Hawthorne, California
Current Conditions -  °F | °C
As of 2:53 PM on Saturday 20 Dec 2014 (Local Time) from KHHR Reporting Station
Clear Clear  
Wind Chill: 63°   Ceiling: Unl
Heat Index: 63°   Visibility: 10mi
Dew Point: 54°   Wind: 7mph
Humidity: 72%   Direction: 260°W
Pressure: 30.12"   Gusts: NA
Location:  33.92°N, 118.35°W
Report Text: KHHR 202253Z AUTO 26006KT 10SM CLR 17/12 A3012 RMK AO2 SLP200 T01720122
Loading
Personal Weather Stations






























Interactive Weather Map New forecast layout! Learn more

10-Day Weather Forecast

Advertisements
Track Severe Weather on mobile